createdAt,value
2023-03-29T11:45:27.543Z,55.9054
2023-03-29T11:46:22.464Z,56.2701
2023-03-29T11:47:24.865Z,56.0302
2023-03-29T11:58:54.896Z,57.2148
2023-03-29T12:03:14.776Z,55.6554
2023-03-29T12:04:11.034Z,55.7981
2023-03-29T12:05:57.752Z,56.3922
2023-03-29T12:17:01.451Z,56.2721
2023-03-29T12:22:38.952Z,56.6530
2023-03-29T12:23:34.269Z,56.7014
2023-03-29T12:24:36.853Z,56.5622
2023-03-29T12:25:39.431Z,56.6060
2023-03-29T12:26:42.017Z,56.7632
2023-03-29T12:27:44.628Z,56.7996
2023-03-29T12:28:47.158Z,56.9193
2023-03-29T12:29:49.733Z,56.9543
2023-03-29T12:30:52.314Z,56.9339
2023-03-29T12:31:55.014Z,56.8936
2023-03-29T12:32:57.521Z,56.9197
2023-03-29T12:34:00.043Z,56.9364
2023-03-29T12:35:02.611Z,56.9358
2023-03-29T12:36:05.233Z,56.9534
2023-03-29T12:37:07.762Z,56.9576
2023-03-29T12:38:10.406Z,56.9814
2023-03-29T12:39:12.938Z,56.9871
2023-03-29T12:40:15.544Z,56.9766
2023-03-29T12:41:18.089Z,57.0232
2023-03-29T12:42:20.698Z,57.0309
2023-03-29T12:43:23.291Z,57.0520
2023-03-29T12:44:25.818Z,57.0634
2023-03-29T12:45:28.406Z,59.6580
2023-03-29T12:46:31.026Z,57.4744
2023-03-29T12:47:33.632Z,57.0112
2023-03-29T12:48:36.189Z,56.9645
2023-03-29T12:49:38.694Z,56.9670
2023-03-29T12:50:41.318Z,56.9610
2023-03-29T12:51:43.917Z,56.9397
2023-03-29T12:52:46.444Z,56.9384
2023-03-29T12:53:49.076Z,56.9235
2023-03-29T12:54:51.752Z,56.9281
2023-03-29T12:55:54.180Z,56.8860
2023-03-29T12:56:56.952Z,56.9489
2023-03-29T12:57:59.476Z,57.0374
2023-03-29T12:59:02.108Z,57.0702
2023-03-29T13:00:04.686Z,57.1025
2023-03-29T13:01:07.400Z,57.1664
2023-03-29T13:02:09.715Z,57.2050
2023-03-29T13:03:12.503Z,57.2570
2023-03-29T13:04:15.072Z,57.2775
2023-03-29T13:05:17.588Z,57.2376
2023-03-29T13:06:20.112Z,57.2538
2023-03-29T13:07:22.779Z,57.2328
2023-03-29T13:08:25.180Z,57.2318
2023-03-29T13:09:27.900Z,57.2421
2023-03-29T13:10:30.502Z,57.2528
2023-03-29T13:11:32.862Z,57.1637
2023-03-29T13:12:35.549Z,57.0809
2023-03-29T13:13:38.071Z,57.0766
2023-03-29T13:14:40.824Z,57.0926
2023-03-29T13:15:44.794Z,57.1776
2023-03-29T13:16:45.877Z,57.2563
2023-03-29T13:17:48.463Z,57.3322
2023-03-29T13:18:51.015Z,57.3905
2023-03-29T13:19:53.487Z,57.4523
2023-03-29T13:20:56.156Z,57.4919
2023-03-29T13:21:58.564Z,57.5172
2023-03-29T13:23:01.352Z,57.5531
2023-03-29T13:24:03.893Z,57.6412
2023-03-29T13:25:06.362Z,57.6732
2023-03-29T13:26:09.022Z,57.7967
2023-03-29T13:27:11.615Z,57.8353
2023-03-29T13:28:14.187Z,57.8604
2023-03-29T13:29:16.661Z,57.9277
2023-03-29T13:30:19.422Z,57.9079
2023-03-29T13:31:21.783Z,57.8821
2023-03-29T13:32:24.394Z,57.8960
2023-03-29T13:33:27.074Z,57.9114
2023-03-29T13:34:29.454Z,57.8872
2023-03-29T13:35:32.099Z,57.9129
2023-03-29T13:36:34.784Z,57.9807
2023-03-29T13:37:37.183Z,58.3449
2023-03-29T13:38:39.782Z,58.1657
2023-03-29T13:39:42.352Z,58.0059
2023-03-29T13:40:44.955Z,57.9843
2023-03-29T13:41:47.696Z,57.9734
2023-03-29T13:42:50.298Z,57.9563
2023-03-29T13:43:52.652Z,57.9701
2023-03-29T13:44:55.385Z,58.0569
2023-03-29T13:45:57.866Z,58.1005
2023-03-29T13:47:00.428Z,58.1034
2023-03-29T13:48:05.738Z,58.0955
2023-03-29T13:49:05.772Z,58.1152
2023-03-29T13:50:08.104Z,58.1320
2023-03-29T13:51:10.889Z,58.1058
2023-03-29T13:52:13.453Z,58.1300
2023-03-29T13:53:16.035Z,58.1445
2023-03-29T13:54:18.600Z,58.0922
2023-03-29T13:55:21.244Z,58.0583
2023-03-29T13:56:23.871Z,58.0674
2023-03-29T13:57:26.272Z,58.0245
2023-03-29T13:58:28.882Z,58.0123
2023-03-29T13:59:31.430Z,57.9651
2023-03-29T14:00:33.879Z,57.9679
2023-03-29T14:01:36.539Z,57.9849
2023-03-29T14:02:39.501Z,57.9701
2023-03-29T14:03:41.792Z,57.9735
2023-03-29T14:04:44.171Z,57.9459
2023-03-29T14:05:46.757Z,57.9495
2023-03-29T14:06:49.356Z,57.9345
2023-03-29T14:07:51.982Z,57.9272
2023-03-29T14:08:54.646Z,57.9724
2023-03-29T14:09:57.274Z,58.0417
2023-03-29T14:10:59.833Z,58.0758
2023-03-29T14:12:02.416Z,58.0653
2023-03-29T14:13:04.955Z,58.0893
2023-03-29T14:14:07.513Z,58.0616
2023-03-29T14:15:09.901Z,58.0564
2023-03-29T14:16:12.696Z,58.1011
2023-03-29T14:17:15.281Z,58.1519
2023-03-29T14:18:17.865Z,58.1843
2023-03-29T14:19:20.417Z,58.1822
2023-03-29T14:20:22.790Z,58.1868
2023-03-29T14:21:25.354Z,58.1665
2023-03-29T14:22:28.159Z,58.1276
2023-03-29T14:23:30.694Z,58.1029
2023-03-29T14:24:33.068Z,58.0612
2023-03-29T14:25:35.879Z,58.0817
2023-03-29T14:26:38.428Z,58.0776
2023-03-29T14:27:41.073Z,58.0674
2023-03-29T14:28:43.537Z,58.0735
2023-03-29T14:29:45.993Z,58.0901
2023-03-29T14:30:48.551Z,58.1045
2023-03-29T14:31:51.380Z,58.1146
2023-03-29T14:32:53.957Z,58.0773
2023-03-29T14:33:56.284Z,58.0976
2023-03-29T14:34:58.831Z,58.0952
2023-03-29T14:36:01.834Z,58.0673
2023-03-29T14:37:04.206Z,58.0674
2023-03-29T14:38:06.618Z,58.0479
2023-03-29T14:39:09.283Z,58.0298
2023-03-29T14:40:11.739Z,57.9697
2023-03-29T14:41:14.456Z,58.0111
2023-03-29T14:42:17.053Z,58.0364
2023-03-29T14:43:19.603Z,58.0820
2023-03-29T14:44:22.810Z,58.1596
2023-03-29T14:45:24.606Z,58.1925
2023-03-29T14:46:27.356Z,58.2127
2023-03-29T14:47:29.852Z,58.2332
2023-03-29T14:48:32.538Z,58.2617
2023-03-29T14:49:34.897Z,58.2179
2023-03-29T14:50:37.640Z,58.2247
2023-03-29T14:51:40.007Z,58.2753
2023-03-29T14:52:43.889Z,58.3062
2023-03-29T14:53:45.360Z,58.2804
2023-03-29T14:54:47.898Z,57.9313
2023-03-29T14:55:50.493Z,57.9537
2023-03-29T14:56:52.926Z,58.0192
2023-03-29T14:57:55.669Z,58.0873
2023-03-29T14:58:58.227Z,59.8217
2023-03-29T15:00:00.632Z,58.7999
2023-03-29T15:01:03.476Z,58.4937
2023-03-29T15:02:05.940Z,58.3106
2023-03-29T15:03:08.644Z,58.2402
2023-03-29T15:04:10.964Z,58.2293
2023-03-29T15:05:13.733Z,58.2765
2023-03-29T15:06:16.307Z,58.2883
2023-03-29T15:07:18.880Z,58.2373
2023-03-29T15:08:21.398Z,58.2594
2023-03-29T15:09:24.006Z,58.2866
2023-03-29T15:10:26.435Z,58.3055
2023-03-29T15:11:29.198Z,58.2690
2023-03-29T15:12:31.546Z,58.2068
2023-03-29T15:13:34.119Z,58.1789
2023-03-29T15:14:36.805Z,58.1593
2023-03-29T15:15:39.425Z,58.0637
2023-03-29T15:16:41.848Z,58.0446
2023-03-29T15:17:51.591Z,58.0417
2023-03-29T15:18:48.056Z,58.0279
2023-03-29T15:19:49.679Z,57.9510
2023-03-29T15:20:52.118Z,57.9076
2023-03-29T15:21:54.797Z,57.9339
2023-03-29T15:22:57.524Z,57.8653
2023-03-29T15:24:00.050Z,57.7981
2023-03-29T15:25:02.487Z,57.8013
2023-03-29T15:26:05.127Z,57.7702
2023-03-29T15:27:07.833Z,57.7254
2023-03-29T15:28:10.451Z,57.6343
2023-03-29T15:29:12.879Z,57.5780
2023-03-29T15:30:15.513Z,57.6221
2023-03-29T15:31:18.090Z,57.5946
2023-03-29T15:32:20.690Z,57.5237
2023-03-29T15:33:23.390Z,57.4433
2023-03-29T15:34:25.847Z,57.4317
2023-03-29T15:35:28.376Z,57.4363
2023-03-29T15:36:30.981Z,57.4413
2023-03-29T15:37:33.543Z,57.3370
2023-03-29T15:38:43.345Z,57.2790
2023-03-29T15:39:39.878Z,57.2528
2023-03-29T15:40:41.343Z,57.2578
2023-03-29T15:41:43.846Z,57.2615
2023-03-29T15:42:46.452Z,57.1819
2023-03-29T15:43:49.066Z,57.2109
2023-03-29T15:44:51.614Z,57.1533
2023-03-29T15:45:54.227Z,57.1527
2023-03-29T15:46:56.788Z,57.0723
2023-03-29T15:47:59.328Z,57.0036
2023-03-29T15:49:01.897Z,56.9543
2023-03-29T15:50:04.405Z,56.9587
2023-03-29T15:51:07.227Z,56.9634
2023-03-29T15:52:09.598Z,56.9468
2023-03-29T15:53:15.392Z,56.8414
2023-03-29T15:54:14.777Z,56.7890
2023-03-29T15:55:17.264Z,56.8043
2023-03-29T15:56:19.916Z,56.8343
2023-03-29T15:57:22.443Z,56.8329
2023-03-29T15:58:25.279Z,56.8452
2023-03-29T15:59:27.707Z,56.8098
2023-03-29T16:00:30.236Z,56.7625
2023-03-29T16:01:32.826Z,56.7819
2023-03-29T16:02:35.449Z,56.7878
2023-03-29T16:03:37.959Z,56.8030
2023-03-29T16:04:40.537Z,56.7574
2023-03-29T16:05:42.933Z,56.7073
2023-03-29T16:06:45.924Z,56.6712
2023-03-29T16:07:48.260Z,56.6449
2023-03-29T16:08:50.848Z,56.5855
2023-03-29T16:09:53.192Z,56.5922
2023-03-29T16:10:55.915Z,56.5792
2023-03-29T16:11:58.596Z,56.5551
2023-03-29T16:13:01.145Z,56.5717
2023-03-29T16:14:03.710Z,56.5548
2023-03-29T16:15:06.273Z,56.5323
2023-03-29T16:16:08.917Z,56.5116
2023-03-29T16:17:11.467Z,56.4953
2023-03-29T16:18:13.996Z,56.4749
2023-03-29T16:19:16.598Z,56.4585
2023-03-29T16:20:19.047Z,56.3403
2023-03-29T16:21:21.906Z,56.3752
2023-03-29T16:22:24.370Z,56.3558
2023-03-29T16:23:26.901Z,56.3607
2023-03-29T16:24:29.366Z,56.3444
2023-03-29T16:25:32.030Z,56.2986
2023-03-29T16:26:34.590Z,56.2819
2023-03-29T16:27:37.210Z,56.2675
2023-03-29T16:28:39.801Z,56.0799
2023-03-29T16:29:42.418Z,56.0870
2023-03-29T16:30:44.938Z,56.0825
2023-03-29T16:31:47.699Z,56.1160
2023-03-29T16:32:50.264Z,56.0151
2023-03-29T16:33:52.720Z,55.8717
2023-03-29T16:34:55.253Z,56.0728
2023-03-29T16:35:57.711Z,56.0985
2023-03-29T16:37:00.633Z,56.0028
2023-03-29T16:38:03.053Z,55.8766
2023-03-29T16:39:05.408Z,56.0474
2023-03-29T16:40:07.886Z,56.0613
2023-03-29T16:41:10.633Z,56.0469
2023-03-29T16:42:13.272Z,55.9801
2023-03-29T16:43:15.625Z,55.9553
2023-03-29T16:44:20.192Z,55.9216
2023-03-29T16:45:20.939Z,55.7067
2023-03-29T16:46:23.612Z,55.7034
2023-03-29T16:47:26.227Z,55.3552
2023-03-29T16:48:28.763Z,55.2413
2023-03-29T16:49:31.276Z,55.4291
2023-03-29T16:50:34.104Z,55.4677
2023-03-29T16:51:36.435Z,55.2692
2023-03-29T16:52:38.868Z,55.1868
2023-03-29T16:53:41.638Z,55.1881
2023-03-29T16:54:44.199Z,55.1322
2023-03-29T16:55:46.788Z,55.0463
2023-03-29T16:56:49.393Z,55.1009
2023-03-29T16:57:51.860Z,55.0011
2023-03-29T16:58:54.544Z,54.9537
2023-03-29T16:59:57.053Z,54.8690
2023-03-29T17:00:59.665Z,54.8308
2023-03-29T17:02:02.376Z,54.8087
2023-03-29T17:03:04.867Z,54.6967
2023-03-29T17:04:07.457Z,54.6058
2023-03-29T17:05:09.863Z,54.5897
2023-03-29T17:06:12.520Z,54.4836
2023-03-29T17:07:15.102Z,54.4926
2023-03-29T17:08:17.670Z,54.4638
2023-03-29T17:09:20.464Z,54.3983
2023-03-29T17:10:22.758Z,54.3574
2023-03-29T17:11:25.355Z,54.3609
2023-03-29T17:12:27.917Z,54.2251
2023-03-29T17:13:30.551Z,54.1303
2023-03-29T17:14:33.175Z,53.9912
2023-03-29T17:15:38.124Z,54.0232
2023-03-29T17:16:38.424Z,53.9674
2023-03-29T17:17:40.701Z,53.8295
2023-03-29T17:18:43.419Z,53.7809
2023-03-29T17:19:46.055Z,53.7041
2023-03-29T17:20:48.752Z,53.7047
2023-03-29T17:21:51.807Z,53.7106
2023-03-29T17:22:53.731Z,53.6016
2023-03-29T17:23:56.328Z,53.5239
2023-03-29T17:24:58.916Z,53.5160
2023-03-29T17:26:01.792Z,53.5003
2023-03-29T17:27:03.791Z,53.4401
2023-03-29T17:28:06.608Z,53.3641
2023-03-29T17:29:09.238Z,53.3477
2023-03-29T17:30:11.741Z,53.3611
2023-03-29T17:31:14.383Z,53.3270
2023-03-29T17:32:16.931Z,53.2472
2023-03-29T17:33:22.221Z,53.2256
2023-03-29T17:34:22.082Z,53.1751
2023-03-29T17:35:24.673Z,53.1523
2023-03-29T17:36:27.264Z,53.1802
2023-03-29T17:37:29.805Z,53.1304
2023-03-29T17:38:32.303Z,53.0118
2023-03-29T17:39:34.946Z,53.0003
2023-03-29T17:40:37.569Z,52.9614
2023-03-29T17:41:40.100Z,52.8943
2023-03-29T17:42:42.612Z,52.8145
2023-03-29T17:43:45.264Z,52.8195
2023-03-29T17:44:47.827Z,52.7864
2023-03-29T17:45:50.487Z,52.7215
2023-03-29T17:46:52.990Z,52.7399
2023-03-29T17:47:55.664Z,52.7165
2023-03-29T17:48:58.177Z,52.7660
2023-03-29T17:50:00.928Z,52.6451
2023-03-29T17:51:03.130Z,52.5969
2023-03-29T17:52:05.871Z,52.6099
2023-03-29T17:53:08.471Z,52.5910
2023-03-29T17:54:10.927Z,52.4768
2023-03-29T17:55:13.394Z,52.5032
2023-03-29T17:56:16.244Z,52.4677
2023-03-29T17:57:18.737Z,52.3332
2023-03-29T17:58:21.425Z,52.3361
2023-03-29T17:59:23.932Z,52.3137
2023-03-29T18:00:26.518Z,52.2461
2023-03-29T18:01:29.155Z,52.2202
2023-03-29T18:02:31.970Z,52.2155
2023-03-29T18:03:34.836Z,52.2004
2023-03-29T18:04:36.815Z,52.1682
2023-03-29T18:05:39.401Z,52.1662
2023-03-29T18:06:42.008Z,52.1539
2023-03-29T18:07:44.478Z,52.1401
2023-03-29T18:08:47.163Z,52.1142
2023-03-29T18:09:49.901Z,52.1290
2023-03-29T18:10:52.314Z,52.1586
2023-03-29T18:11:54.819Z,52.1497
2023-03-29T18:12:57.377Z,52.1073
2023-03-29T18:14:00.012Z,52.0736
2023-03-29T18:15:02.774Z,52.0885
2023-03-29T18:16:05.389Z,52.0402
2023-03-29T18:17:07.837Z,52.0404
2023-03-29T18:18:10.449Z,52.0345
2023-03-29T18:19:12.922Z,52.0238
2023-03-29T18:20:15.432Z,52.0367
2023-03-29T18:21:18.073Z,52.0594
2023-03-29T18:22:20.697Z,52.0010
2023-03-29T18:23:23.115Z,51.5347
2023-03-29T18:24:25.552Z,52.4890
2023-03-29T18:25:28.115Z,52.4785
2023-03-29T18:26:30.834Z,52.5508
2023-03-29T18:27:33.516Z,52.5808
2023-03-29T18:28:36.048Z,52.7935
2023-03-29T18:29:38.421Z,52.7737
2023-03-29T18:30:41.099Z,52.8008
2023-03-29T18:31:43.707Z,52.6020
2023-03-29T18:32:46.390Z,52.6840
2023-03-29T18:33:48.914Z,52.7790
2023-03-29T18:34:51.295Z,52.8995
2023-03-29T18:35:53.894Z,53.0028
2023-03-29T18:36:56.651Z,53.2124
2023-03-29T18:37:59.048Z,53.4236
2023-03-29T18:39:01.777Z,53.5700
2023-03-29T18:40:04.884Z,53.6937
2023-03-29T18:41:06.752Z,53.6570
2023-03-29T18:42:10.923Z,53.7829
2023-03-29T18:43:12.102Z,53.8067
2023-03-29T18:44:14.725Z,53.9305
2023-03-29T18:45:17.052Z,54.3653
2023-03-29T18:46:19.843Z,54.4669
2023-03-29T18:47:22.401Z,54.4095
2023-03-29T18:48:25.012Z,54.5484
2023-03-29T18:49:27.513Z,54.6613
2023-03-29T18:50:29.984Z,54.7747
2023-03-29T18:51:32.597Z,54.9242
2023-03-29T18:52:35.174Z,55.0016
2023-03-29T18:53:37.724Z,55.2120
2023-03-29T18:54:40.236Z,55.3517
2023-03-29T18:55:42.807Z,55.4535
2023-03-29T18:56:45.637Z,55.3644
2023-03-29T18:57:48.165Z,55.3940
2023-03-29T18:58:50.925Z,55.5038
2023-03-29T18:59:53.170Z,55.9777
2023-03-29T19:00:55.737Z,56.4444
2023-03-29T19:01:58.302Z,56.7855
2023-03-29T19:03:00.940Z,57.0087
2023-03-29T19:04:03.529Z,57.1755
2023-03-29T19:05:06.054Z,57.3840
2023-03-29T19:06:08.677Z,57.5704
2023-03-29T19:07:11.223Z,57.6319
2023-03-29T19:08:13.823Z,57.6489
2023-03-29T19:09:16.420Z,57.6814
2023-03-29T19:10:18.990Z,57.6844
2023-03-29T19:11:21.528Z,57.7357
2023-03-29T19:12:24.077Z,57.7907
2023-03-29T19:13:26.666Z,57.8918
2023-03-29T19:14:29.309Z,57.8800
2023-03-29T19:15:31.840Z,57.8942
2023-03-29T19:16:34.405Z,57.9317
2023-03-29T19:17:37.026Z,57.8996
2023-03-29T19:18:39.567Z,57.7010
2023-03-29T19:19:42.154Z,57.7203
2023-03-29T19:20:44.775Z,57.7329
2023-03-29T19:21:47.305Z,57.7384
2023-03-29T19:22:49.859Z,57.7051
2023-03-29T19:23:52.561Z,57.6805
2023-03-29T19:24:55.333Z,57.7003
2023-03-29T19:25:57.595Z,57.6872
2023-03-29T19:27:00.158Z,57.7388
2023-03-29T19:28:02.727Z,57.6274
2023-03-29T19:29:05.334Z,57.6410
2023-03-29T19:30:07.909Z,57.7378
2023-03-29T19:31:10.549Z,57.8117
2023-03-29T19:32:13.069Z,57.6632
2023-03-29T19:33:15.659Z,57.6678
2023-03-29T19:34:18.255Z,57.6261
2023-03-29T19:35:20.859Z,57.6210
2023-03-29T19:36:23.381Z,57.5512
2023-03-29T19:37:25.965Z,57.5632
2023-03-29T19:38:28.537Z,57.5860
2023-03-29T19:39:31.136Z,57.5934
2023-03-29T19:40:33.720Z,57.6838
2023-03-29T19:41:36.286Z,57.8249
2023-03-29T19:42:38.841Z,57.7387
2023-03-29T19:43:41.461Z,57.8071
2023-03-29T19:44:43.992Z,57.7986
2023-03-29T19:45:46.603Z,57.8861
2023-03-29T19:46:49.210Z,57.8252
2023-03-29T19:47:54.661Z,57.7819
2023-03-29T19:48:54.296Z,57.7301
2023-03-29T19:50:04.266Z,57.7849
2023-03-29T19:50:59.462Z,57.8570
2023-03-29T19:52:01.989Z,57.9142
2023-03-29T19:53:04.619Z,57.7284
2023-03-29T19:54:07.234Z,57.7242
2023-03-29T19:55:09.764Z,57.6487
2023-03-29T19:56:12.403Z,57.6885
2023-03-29T19:57:14.950Z,57.6613
2023-03-29T19:58:17.526Z,57.8072
2023-03-29T19:59:20.161Z,57.7303
2023-03-29T20:00:22.639Z,57.8378
2023-03-29T20:01:25.292Z,57.7139
2023-03-29T20:02:27.823Z,57.7162
2023-03-29T20:03:30.516Z,57.7143
2023-03-29T20:04:33.118Z,57.5852
2023-03-29T20:05:35.550Z,57.7548
2023-03-29T20:06:38.151Z,57.9715
2023-03-29T20:07:40.808Z,58.1914
2023-03-29T20:08:43.329Z,58.0480
2023-03-29T20:09:45.910Z,57.9494
2023-03-29T20:10:48.429Z,58.0330
2023-03-29T20:11:50.991Z,57.9639
2023-03-29T20:12:53.603Z,57.9255
2023-03-29T20:13:56.198Z,58.0904
2023-03-29T20:14:58.737Z,58.1658
2023-03-29T20:16:01.376Z,58.1900
2023-03-29T20:17:03.940Z,58.1098
2023-03-29T20:18:06.526Z,58.0353
2023-03-29T20:19:09.059Z,58.4308
2023-03-29T20:20:11.591Z,58.3463
2023-03-29T20:21:14.224Z,58.2246
2023-03-29T20:22:16.814Z,58.0393
2023-03-29T20:23:19.355Z,57.9808
2023-03-29T20:24:21.977Z,58.0186
2023-03-29T20:25:24.531Z,58.0484
2023-03-29T20:26:27.132Z,58.1517
2023-03-29T20:27:29.692Z,58.2085
2023-03-29T20:28:32.267Z,58.2024
2023-03-29T20:29:34.912Z,58.2469
2023-03-29T20:30:37.411Z,58.3425
2023-03-29T20:31:40.035Z,58.3145
2023-03-29T20:32:42.667Z,58.2404
2023-03-29T20:33:45.236Z,58.2253
2023-03-29T20:34:47.821Z,58.3416
2023-03-29T20:35:50.416Z,58.5215
2023-03-29T20:36:53.053Z,58.3840
2023-03-29T20:37:56.997Z,58.3947
2023-03-29T20:38:58.133Z,58.4027
2023-03-29T20:40:00.703Z,58.4066
2023-03-29T20:41:03.504Z,58.4407
2023-03-29T20:42:05.886Z,58.4546
2023-03-29T20:43:08.483Z,58.5315
2023-03-29T20:44:11.061Z,58.4735
2023-03-29T20:45:13.572Z,58.4744
2023-03-29T20:46:16.182Z,58.4669
2023-03-29T20:47:18.768Z,58.4989
2023-03-29T20:48:21.377Z,58.5207
2023-03-29T20:49:23.894Z,58.5347
2023-03-29T20:50:26.473Z,58.5598
2023-03-29T20:51:29.105Z,58.5877
2023-03-29T20:52:31.676Z,58.6479
2023-03-29T20:53:34.277Z,58.6502
2023-03-29T20:54:36.809Z,58.6777
2023-03-29T20:55:39.392Z,58.7106
2023-03-29T20:56:42.081Z,58.6724
2023-03-29T20:57:44.642Z,58.6734
2023-03-29T20:58:47.186Z,58.6668
2023-03-29T20:59:49.691Z,58.6739
2023-03-29T21:00:52.300Z,58.7034
2023-03-29T21:01:54.917Z,58.7115
2023-03-29T21:02:57.586Z,58.7422
2023-03-29T21:04:00.083Z,58.8252
2023-03-29T21:05:02.636Z,59.1025
2023-03-29T21:06:05.180Z,58.9361
2023-03-29T21:07:08.152Z,58.8809
2023-03-29T21:08:10.350Z,58.8740
2023-03-29T21:09:12.942Z,58.8536
2023-03-29T21:10:15.471Z,58.8658
2023-03-29T21:11:18.059Z,58.8019
2023-03-29T21:12:20.677Z,58.8928
2023-03-29T21:13:23.224Z,58.8751
2023-03-29T21:14:25.838Z,58.8466
2023-03-29T21:15:28.454Z,58.9570
2023-03-29T21:16:31.149Z,59.0199
2023-03-29T21:17:33.627Z,59.0404
2023-03-29T21:18:36.162Z,59.0730
2023-03-29T21:19:38.780Z,59.1560
2023-03-29T21:20:41.308Z,59.1329
2023-03-29T21:21:43.888Z,59.2084
2023-03-29T21:22:46.676Z,59.0577
2023-03-29T21:23:49.139Z,59.4120
2023-03-29T21:24:51.905Z,60.0203
2023-03-29T21:25:54.165Z,59.9961
2023-03-29T21:26:56.741Z,60.0975
2023-03-29T21:27:59.356Z,60.2849
2023-03-29T21:29:01.935Z,60.1975
2023-03-29T21:30:04.511Z,60.1553
2023-03-29T21:31:07.268Z,59.9507
2023-03-29T21:32:09.641Z,60.0071
2023-03-29T21:33:12.247Z,60.0381
2023-03-29T21:34:14.873Z,60.0115
2023-03-29T21:35:17.425Z,59.8734
2023-03-29T21:36:20.014Z,59.9714
2023-03-29T21:37:22.548Z,59.9536
2023-03-29T21:38:25.124Z,60.0233
2023-03-29T21:39:27.725Z,59.9973
2023-03-29T21:40:30.324Z,60.0500
2023-03-29T21:41:32.895Z,60.1299
2023-03-29T21:42:35.433Z,60.1606
2023-03-29T21:43:38.268Z,60.2116
2023-03-29T21:44:40.589Z,60.0465
2023-03-29T21:45:43.209Z,60.1015
2023-03-29T21:46:45.792Z,60.2561
2023-03-29T21:47:48.953Z,60.1663
2023-03-29T21:48:50.896Z,60.3410
2023-03-29T21:49:53.494Z,60.2923
2023-03-29T21:50:56.101Z,60.2572
2023-03-29T21:51:58.620Z,60.3588
2023-03-29T21:53:01.203Z,60.1079
2023-03-29T21:54:03.774Z,60.0830
2023-03-29T21:55:06.433Z,60.0383
2023-03-29T21:56:08.980Z,60.0723
2023-03-29T21:57:11.592Z,59.9871
2023-03-29T21:58:14.101Z,60.1161
2023-03-29T21:59:16.670Z,60.1510
2023-03-29T22:00:19.231Z,60.1043
2023-03-29T22:01:21.876Z,60.0847
2023-03-29T22:02:24.439Z,60.1020
2023-03-29T22:03:27.029Z,60.0451
2023-03-29T22:04:36.082Z,60.0738
2023-03-29T22:05:33.134Z,60.0455
2023-03-29T22:06:34.816Z,60.0426
2023-03-29T22:07:37.294Z,60.1327
2023-03-29T22:08:39.892Z,59.9663
2023-03-29T22:09:42.481Z,59.9574
2023-03-29T22:10:45.014Z,60.0747
2023-03-29T22:11:47.634Z,59.9273
2023-03-29T22:12:50.221Z,59.9148
2023-03-29T22:13:52.738Z,60.0520
2023-03-29T22:14:55.344Z,60.0431
2023-03-29T22:15:57.929Z,59.9955
2023-03-29T22:17:00.595Z,60.0040
2023-03-29T22:18:03.083Z,60.0565
2023-03-29T22:19:05.638Z,60.0615
2023-03-29T22:20:08.460Z,60.0153
2023-03-29T22:21:10.804Z,60.0105
2023-03-29T22:22:14.067Z,60.0350
2023-03-29T22:23:15.963Z,60.0527
2023-03-29T22:24:18.514Z,60.0461
2023-03-29T22:25:21.083Z,60.1012
2023-03-29T22:26:23.672Z,60.1673
2023-03-29T22:27:26.290Z,60.0218
2023-03-29T22:28:28.814Z,60.1350
2023-03-29T22:29:31.407Z,60.0057
2023-03-29T22:30:34.076Z,60.1168
2023-03-29T22:31:36.695Z,60.2611
2023-03-29T22:32:39.185Z,60.2021
2023-03-29T22:33:41.708Z,60.1450
2023-03-29T22:34:44.356Z,60.1882
2023-03-29T22:35:46.890Z,60.2595
2023-03-29T22:36:49.521Z,60.3411
2023-03-29T22:37:52.056Z,60.3308
2023-03-29T22:38:54.642Z,60.2053
2023-03-29T22:39:57.233Z,60.4279
2023-03-29T22:40:59.733Z,60.3465
2023-03-29T22:42:02.421Z,60.3290
2023-03-29T22:43:05.629Z,60.4220
2023-03-29T22:44:07.474Z,60.5405
2023-03-29T22:45:10.061Z,60.4179
2023-03-29T22:46:12.695Z,60.2195
2023-03-29T22:47:15.238Z,60.1733
2023-03-29T22:48:17.889Z,60.2194
2023-03-29T22:49:20.413Z,60.4168
2023-03-29T22:50:22.960Z,60.3835
2023-03-29T22:51:25.616Z,60.5885
2023-03-29T22:52:28.315Z,60.6204
2023-03-29T22:53:30.916Z,60.6714
2023-03-29T22:54:33.473Z,61.0844
2023-03-29T22:55:36.034Z,61.3878
2023-03-29T22:56:38.395Z,61.3685
2023-03-29T22:57:41.193Z,61.1529
2023-03-29T22:58:43.821Z,61.1165
2023-03-29T22:59:46.286Z,61.0952
2023-03-29T23:00:48.939Z,61.1134
2023-03-29T23:01:51.538Z,61.0344
2023-03-29T23:02:54.108Z,61.1136
2023-03-29T23:03:56.759Z,60.9653
2023-03-29T23:04:59.259Z,60.8911
2023-03-29T23:06:01.799Z,60.8683
2023-03-29T23:07:04.407Z,60.9573
2023-03-29T23:08:07.145Z,60.9668
2023-03-29T23:09:09.443Z,60.7486
2023-03-29T23:10:12.097Z,60.6490
2023-03-29T23:11:14.720Z,60.5600
2023-03-29T23:12:17.298Z,60.7774
2023-03-29T23:13:19.925Z,60.9764
2023-03-29T23:14:22.661Z,60.9276
2023-03-29T23:15:25.280Z,60.8852
2023-03-29T23:16:27.723Z,61.0405
2023-03-29T23:17:30.217Z,60.9926
2023-03-29T23:18:32.691Z,61.0502
2023-03-29T23:19:35.373Z,61.2033
2023-03-29T23:20:37.897Z,61.3871
2023-03-29T23:21:40.354Z,61.1825
2023-03-29T23:22:43.086Z,61.3128
2023-03-29T23:23:45.456Z,61.4011
2023-03-29T23:24:48.261Z,61.2187
2023-03-29T23:25:50.644Z,61.2719
2023-03-29T23:26:53.212Z,61.1455
2023-03-29T23:27:55.962Z,61.1165
2023-03-29T23:28:58.370Z,61.0712
2023-03-29T23:30:00.990Z,61.4342
2023-03-29T23:31:03.899Z,61.5051
2023-03-29T23:32:06.204Z,61.5289
2023-03-29T23:33:08.870Z,61.3765
2023-03-29T23:34:11.154Z,61.3508
2023-03-29T23:35:14.013Z,61.3172
2023-03-29T23:36:16.582Z,61.2278
2023-03-29T23:37:19.145Z,61.0817
2023-03-29T23:38:21.719Z,60.9534
2023-03-29T23:39:24.310Z,60.9376
2023-03-29T23:40:26.873Z,60.9124
2023-03-29T23:41:29.417Z,60.9601
2023-03-29T23:42:32.210Z,61.0057
2023-03-29T23:43:34.507Z,60.9523
2023-03-29T23:44:37.192Z,60.9205
2023-03-29T23:45:39.806Z,60.9779
2023-03-29T23:46:42.376Z,60.9466
2023-03-29T23:47:44.967Z,60.9200
2023-03-29T23:48:47.478Z,60.8944
2023-03-29T23:49:50.058Z,60.8688
2023-03-29T23:50:52.651Z,60.8475
2023-03-29T23:51:55.179Z,60.8801
2023-03-29T23:52:57.785Z,60.9935
2023-03-29T23:54:00.362Z,61.0456
2023-03-29T23:55:02.949Z,61.0831
2023-03-29T23:56:05.766Z,61.1413
2023-03-29T23:57:08.213Z,61.0767
2023-03-29T23:58:10.677Z,61.1403
2023-03-29T23:59:13.207Z,61.1028
